createdAt,value
2023-04-24T00:00:43.229Z,11.55
2023-04-24T00:01:43.226Z,11.57
2023-04-24T00:02:43.369Z,11.57
2023-04-24T00:03:43.354Z,11.57
2023-04-24T00:04:43.312Z,11.55
2023-04-24T00:05:43.141Z,11.55
2023-04-24T00:06:43.130Z,11.55
2023-04-24T00:07:43.184Z,11.54
2023-04-24T00:08:43.117Z,11.51
2023-04-24T00:09:43.385Z,11.47
2023-04-24T00:10:43.100Z,11.44
2023-04-24T00:11:43.116Z,11.43
2023-04-24T00:12:43.121Z,11.40
2023-04-24T00:13:43.056Z,11.37
2023-04-24T00:14:43.041Z,11.35
2023-04-24T00:15:43.030Z,11.35
2023-04-24T00:16:43.070Z,11.33
2023-04-24T00:17:43.049Z,11.32
2023-04-24T00:18:42.996Z,11.33
2023-04-24T00:19:43.278Z,11.36
2023-04-24T00:20:42.999Z,11.33
2023-04-24T00:21:43.024Z,11.33
2023-04-24T00:22:42.963Z,11.32
2023-04-24T00:23:42.990Z,11.36
2023-04-24T00:24:42.933Z,11.37
2023-04-24T00:25:42.936Z,11.39
2023-04-24T00:26:42.909Z,11.37
2023-04-24T00:27:42.906Z,11.36
2023-04-24T00:28:42.951Z,11.35
2023-04-24T00:29:43.208Z,11.35
2023-04-24T00:30:42.883Z,11.33
2023-04-24T00:31:42.884Z,11.33
2023-04-24T00:32:42.906Z,11.32
2023-04-24T00:33:42.838Z,11.32
2023-04-24T00:34:42.930Z,11.33
2023-04-24T00:35:42.929Z,11.33
2023-04-24T00:36:42.801Z,11.36
2023-04-24T00:37:42.821Z,11.35
2023-04-24T00:38:42.780Z,11.36
2023-04-24T00:39:42.979Z,11.35
2023-04-24T00:40:42.759Z,11.33
2023-04-24T00:41:42.754Z,11.29
2023-04-24T00:42:42.738Z,11.32
2023-04-24T00:43:42.756Z,11.32
2023-04-24T00:44:42.735Z,11.32
2023-04-24T00:45:42.705Z,11.33
2023-04-24T00:46:42.853Z,11.35
2023-04-24T00:47:42.803Z,11.35
2023-04-24T00:48:42.670Z,11.35
2023-04-24T00:49:42.900Z,11.35
2023-04-24T00:50:42.646Z,11.36
2023-04-24T00:51:42.637Z,11.37
2023-04-24T00:52:42.734Z,11.36
2023-04-24T00:53:42.640Z,11.33
2023-04-24T00:54:42.604Z,11.35
2023-04-24T00:55:42.610Z,11.35
2023-04-24T00:56:42.603Z,11.35
2023-04-24T00:57:42.604Z,11.36
2023-04-24T00:58:42.569Z,11.35
2023-04-24T00:59:42.794Z,11.35
2023-04-24T01:00:42.534Z,11.33
2023-04-24T01:01:42.567Z,11.29
2023-04-24T01:02:42.603Z,11.32
2023-04-24T01:03:42.735Z,11.29
2023-04-24T01:04:42.640Z,11.29
2023-04-24T01:05:42.490Z,11.29
2023-04-24T01:06:42.484Z,11.28
2023-04-24T01:07:42.489Z,11.28
2023-04-24T01:08:42.463Z,11.28
2023-04-24T01:09:42.767Z,11.29
2023-04-24T01:10:42.495Z,11.27
2023-04-24T01:11:42.436Z,11.28
2023-04-24T01:12:42.468Z,11.28
2023-04-24T01:14:03.432Z,11.29
2023-04-24T01:14:42.408Z,11.33
2023-04-24T01:15:42.474Z,11.39
2023-04-24T01:16:42.392Z,11.49
2023-04-24T01:17:42.441Z,11.52
2023-04-24T01:18:42.360Z,11.55
2023-04-24T01:19:42.593Z,11.60
2023-04-24T01:20:42.336Z,11.62
2023-04-24T01:21:42.326Z,11.64
2023-04-24T01:22:42.326Z,11.62
2023-04-24T01:23:42.327Z,11.61
2023-04-24T01:24:42.298Z,11.62
2023-04-24T01:25:42.277Z,11.61
2023-04-24T01:26:42.270Z,11.62
2023-04-24T01:27:42.314Z,11.61
2023-04-24T01:28:42.244Z,11.60
2023-04-24T01:29:42.591Z,11.57
2023-04-24T01:30:42.237Z,11.55
2023-04-24T01:31:42.299Z,11.54
2023-04-24T01:32:42.240Z,11.49
2023-04-24T01:33:42.193Z,11.47
2023-04-24T01:34:42.192Z,11.52
2023-04-24T01:35:42.184Z,11.51
2023-04-24T01:36:42.231Z,11.49
2023-04-24T01:37:42.159Z,11.47
2023-04-24T01:38:42.157Z,11.46
2023-04-24T01:39:42.522Z,11.46
2023-04-24T01:40:42.113Z,11.44
2023-04-24T01:41:42.121Z,11.42
2023-04-24T01:42:42.126Z,11.42
2023-04-24T01:43:42.086Z,11.40
2023-04-24T01:44:42.123Z,11.37
2023-04-24T01:45:42.078Z,11.36
2023-04-24T01:46:42.114Z,11.35
2023-04-24T01:47:42.084Z,11.33
2023-04-24T01:48:42.032Z,11.35
2023-04-24T01:49:42.205Z,11.32
2023-04-24T01:50:42.004Z,11.32
2023-04-24T01:51:41.993Z,11.28
2023-04-24T01:52:42.014Z,11.24
2023-04-24T01:53:41.975Z,11.22
2023-04-24T01:54:41.966Z,11.19
2023-04-24T01:55:41.954Z,11.18
2023-04-24T01:56:41.951Z,11.15
2023-04-24T01:57:42.034Z,11.10
2023-04-24T01:58:41.930Z,11.06
2023-04-24T01:59:42.304Z,11.02
2023-04-24T02:00:42.061Z,10.97
2023-04-24T02:01:41.928Z,10.96
2023-04-24T02:02:42.122Z,10.91
2023-04-24T02:03:41.998Z,10.86
2023-04-24T02:04:41.915Z,10.84
2023-04-24T02:05:41.933Z,10.79
2023-04-24T02:06:41.887Z,10.78
2023-04-24T02:07:41.874Z,10.79
2023-04-24T02:08:41.823Z,10.78
2023-04-24T02:09:42.019Z,10.74
2023-04-24T02:10:41.797Z,10.74
2023-04-24T02:11:41.785Z,10.76
2023-04-24T02:12:41.866Z,10.73
2023-04-24T02:13:41.763Z,10.70
2023-04-24T02:14:41.737Z,10.66
2023-04-24T02:15:41.800Z,10.63
2023-04-24T02:16:41.804Z,10.60
2023-04-24T02:17:41.837Z,10.59
2023-04-24T02:18:41.694Z,10.55
2023-04-24T02:19:41.864Z,10.52
2023-04-24T02:20:41.675Z,10.48
2023-04-24T02:21:41.697Z,10.45
2023-04-24T02:22:41.718Z,10.40
2023-04-24T02:23:41.666Z,10.34
2023-04-24T02:24:41.629Z,10.29
2023-04-24T02:25:41.622Z,10.26
2023-04-24T02:26:41.686Z,10.27
2023-04-24T02:27:41.646Z,10.20
2023-04-24T02:28:41.602Z,10.15
2023-04-24T02:29:41.897Z,10.08
2023-04-24T02:30:41.566Z,10.02
2023-04-24T02:31:41.649Z,9.99
2023-04-24T02:32:41.597Z,9.94
2023-04-24T02:33:41.553Z,9.89
2023-04-24T02:34:41.533Z,9.84
2023-04-24T02:35:41.577Z,9.78
2023-04-24T02:36:41.550Z,9.72
2023-04-24T02:37:41.503Z,9.69
2023-04-24T02:38:41.480Z,9.66
2023-04-24T02:39:41.661Z,9.64
2023-04-24T02:40:41.494Z,9.61
2023-04-24T02:41:41.477Z,9.58
2023-04-24T02:42:41.447Z,9.54
2023-04-24T02:43:41.427Z,9.51
2023-04-24T02:44:41.428Z,9.48
2023-04-24T02:45:41.476Z,9.47
2023-04-24T02:46:41.410Z,9.50
2023-04-24T02:47:41.405Z,9.47
2023-04-24T02:48:41.385Z,9.40
2023-04-24T02:49:41.602Z,9.38
2023-04-24T02:50:41.435Z,9.32
2023-04-24T02:51:41.376Z,9.29
2023-04-24T02:52:41.342Z,9.26
2023-04-24T02:53:41.316Z,9.23
2023-04-24T02:54:41.314Z,9.18
2023-04-24T02:55:41.304Z,9.15
2023-04-24T02:56:41.336Z,9.15
2023-04-24T02:57:41.288Z,9.15
2023-04-24T02:58:41.259Z,9.14
2023-04-24T02:59:41.437Z,9.15
2023-04-24T03:00:41.260Z,9.17
2023-04-24T03:01:41.296Z,9.23
2023-04-24T03:02:41.398Z,9.21
2023-04-24T03:03:41.421Z,9.20
2023-04-24T03:04:41.344Z,9.23
2023-04-24T03:05:41.200Z,9.26
2023-04-24T03:06:41.189Z,9.28
2023-04-24T03:07:41.159Z,9.28
2023-04-24T03:08:41.160Z,9.26
2023-04-24T03:09:41.515Z,9.23
2023-04-24T03:10:41.132Z,9.21
2023-04-24T03:11:41.148Z,9.20
2023-04-24T03:12:41.140Z,9.18
2023-04-24T03:13:41.106Z,9.17
2023-04-24T03:14:41.089Z,9.17
2023-04-24T03:15:41.131Z,9.15
2023-04-24T03:16:41.332Z,9.15
2023-04-24T03:17:41.103Z,9.14
2023-04-24T03:18:41.045Z,9.13
2023-04-24T03:19:41.244Z,9.11
2023-04-24T03:20:41.071Z,9.11
2023-04-24T03:21:41.013Z,9.13
2023-04-24T03:22:41.015Z,9.10
2023-04-24T03:23:40.999Z,9.08
2023-04-24T03:24:40.976Z,9.11
2023-04-24T03:25:40.965Z,9.08
2023-04-24T03:26:40.981Z,9.04
2023-04-24T03:27:40.962Z,9.01
2023-04-24T03:28:40.937Z,9.01
2023-04-24T03:29:41.166Z,9.01
2023-04-24T03:30:40.947Z,9.02
2023-04-24T03:31:41.052Z,9.08
2023-04-24T03:32:41.022Z,9.04
2023-04-24T03:33:40.939Z,9.02
2023-04-24T03:34:40.877Z,9.01
2023-04-24T03:35:40.873Z,8.99
2023-04-24T03:36:40.879Z,8.98
2023-04-24T03:37:40.839Z,8.99
2023-04-24T03:38:40.835Z,8.95
2023-04-24T03:39:41.104Z,8.98
2023-04-24T03:40:40.822Z,9.04
2023-04-24T03:41:40.813Z,9.10
2023-04-24T03:42:40.804Z,9.13
2023-04-24T03:43:40.795Z,9.13
2023-04-24T03:44:40.788Z,9.14
2023-04-24T03:45:40.754Z,9.11
2023-04-24T03:46:40.850Z,9.04
2023-04-24T03:47:40.769Z,8.99
2023-04-24T03:48:40.731Z,8.95
2023-04-24T03:49:40.978Z,8.91
2023-04-24T03:50:40.697Z,8.86
2023-04-24T03:51:40.728Z,8.87
2023-04-24T03:52:40.682Z,8.87
2023-04-24T03:53:40.712Z,8.86
2023-04-24T03:54:40.653Z,8.84
2023-04-24T03:55:40.706Z,8.83
2023-04-24T03:56:40.657Z,8.91
2023-04-24T03:57:40.621Z,8.91
2023-04-24T03:58:40.623Z,8.87
2023-04-24T03:59:40.828Z,8.87
2023-04-24T04:00:40.585Z,8.89
2023-04-24T04:01:42.176Z,8.87
2023-04-24T04:02:40.684Z,8.84
2023-04-24T04:03:40.783Z,8.84
2023-04-24T04:04:40.782Z,8.87
2023-04-24T04:05:40.536Z,8.87
2023-04-24T04:06:40.534Z,8.84
2023-04-24T04:07:40.617Z,8.87
2023-04-24T04:08:40.504Z,8.87
2023-04-24T04:09:40.603Z,8.87
2023-04-24T04:10:40.521Z,8.91
2023-04-24T04:11:40.856Z,8.91
2023-04-24T04:12:40.462Z,8.91
2023-04-24T04:13:40.452Z,8.89
2023-04-24T04:14:40.460Z,8.89
2023-04-24T04:15:40.427Z,8.87
2023-04-24T04:16:40.501Z,8.87
2023-04-24T04:17:40.433Z,8.86
2023-04-24T04:18:40.405Z,8.86
2023-04-24T04:19:40.578Z,8.89
2023-04-24T04:20:40.379Z,8.87
2023-04-24T04:21:40.398Z,8.84
2023-04-24T04:22:42.651Z,8.81
2023-04-24T04:23:40.399Z,8.76
2023-04-24T04:24:40.323Z,8.81
2023-04-24T04:25:40.409Z,8.80
2023-04-24T04:26:40.315Z,8.76
2023-04-24T04:27:40.307Z,8.73
2023-04-24T04:28:40.288Z,8.70
2023-04-24T04:29:40.372Z,8.68
2023-04-24T04:30:40.285Z,8.65
2023-04-24T04:31:40.328Z,8.71
2023-04-24T04:32:40.267Z,8.77
2023-04-24T04:33:40.375Z,8.79
2023-04-24T04:34:40.270Z,8.80
2023-04-24T04:35:40.217Z,8.80
2023-04-24T04:36:40.203Z,8.83
2023-04-24T04:37:40.246Z,8.86
2023-04-24T04:38:41.169Z,8.87
2023-04-24T04:39:40.346Z,8.94
2023-04-24T04:40:40.155Z,8.96
2023-04-24T04:41:40.327Z,8.98
2023-04-24T04:42:40.174Z,8.98
2023-04-24T04:43:40.133Z,8.96
2023-04-24T04:44:40.107Z,8.96
2023-04-24T04:45:40.174Z,8.95
2023-04-24T04:46:40.111Z,8.96
2023-04-24T04:47:40.128Z,8.96
2023-04-24T04:48:40.062Z,8.99
2023-04-24T04:49:40.359Z,9.02
2023-04-24T04:50:40.048Z,9.05
2023-04-24T04:51:42.392Z,9.11
2023-04-24T04:52:40.044Z,9.14
2023-04-24T04:53:40.017Z,9.14
2023-04-24T04:54:40.142Z,9.14
2023-04-24T04:55:40.011Z,9.14
2023-04-24T04:56:39.995Z,9.14
2023-04-24T04:57:39.987Z,9.14
2023-04-24T04:58:39.957Z,9.11
2023-04-24T04:59:39.968Z,9.08
2023-04-24T05:00:39.930Z,9.11
2023-04-24T05:01:40.037Z,9.11
2023-04-24T05:02:40.068Z,9.11
2023-04-24T05:03:40.479Z,9.11
2023-04-24T05:04:40.115Z,9.10
2023-04-24T05:05:39.900Z,9.08
2023-04-24T05:06:40.020Z,9.08
2023-04-24T05:07:39.880Z,9.04
2023-04-24T05:08:39.857Z,9.05
2023-04-24T05:09:39.842Z,9.01
2023-04-24T05:10:39.836Z,9.05
2023-04-24T05:11:39.963Z,9.08
2023-04-24T05:12:39.862Z,9.04
2023-04-24T05:13:40.940Z,9.04
2023-04-24T05:14:39.831Z,9.02
2023-04-24T05:15:39.782Z,9.01
2023-04-24T05:16:39.836Z,9.02
2023-04-24T05:17:39.791Z,9.01
2023-04-24T05:18:39.746Z,9.01
2023-04-24T05:19:39.956Z,9.02
2023-04-24T05:20:39.734Z,9.05
2023-04-24T05:21:39.755Z,9.10
2023-04-24T05:22:39.713Z,9.11
2023-04-24T05:23:39.713Z,9.15
2023-04-24T05:24:39.672Z,9.20
2023-04-24T05:25:39.686Z,9.23
2023-04-24T05:26:39.682Z,9.26
2023-04-24T05:27:39.658Z,9.29
2023-04-24T05:28:39.631Z,9.31
2023-04-24T05:29:39.636Z,9.31
2023-04-24T05:30:39.624Z,9.32
2023-04-24T05:31:39.702Z,9.31
2023-04-24T05:32:39.624Z,9.32
2023-04-24T05:33:39.643Z,9.33
2023-04-24T05:34:39.574Z,9.33
2023-04-24T05:35:39.561Z,9.33
2023-04-24T05:36:39.567Z,9.35
2023-04-24T05:37:39.574Z,9.33
2023-04-24T05:38:39.531Z,9.36
2023-04-24T05:39:39.673Z,9.35
2023-04-24T05:40:39.515Z,9.36
2023-04-24T05:41:39.524Z,9.38
2023-04-24T05:42:39.558Z,9.39
2023-04-24T05:43:39.486Z,9.40
2023-04-24T05:44:39.492Z,9.42
2023-04-24T05:45:39.450Z,9.42
2023-04-24T05:46:39.557Z,9.40
2023-04-24T05:47:39.475Z,9.43
2023-04-24T05:48:39.492Z,9.43
2023-04-24T05:49:39.446Z,9.46
2023-04-24T05:50:39.402Z,9.46
2023-04-24T05:51:39.420Z,9.46
2023-04-24T05:52:39.420Z,9.47
2023-04-24T05:53:39.376Z,9.48
2023-04-24T05:54:39.349Z,9.50
2023-04-24T05:55:39.380Z,9.48
2023-04-24T05:56:40.727Z,9.48
2023-04-24T05:57:39.328Z,9.51
2023-04-24T05:58:39.309Z,9.50
2023-04-24T05:59:39.352Z,9.51
2023-04-24T06:00:39.303Z,9.53
2023-04-24T06:01:39.314Z,9.53
2023-04-24T06:02:39.376Z,9.53
2023-04-24T06:03:39.461Z,9.51
2023-04-24T06:04:39.477Z,9.51
2023-04-24T06:05:39.297Z,9.53
2023-04-24T06:06:39.229Z,9.51
2023-04-24T06:07:39.288Z,9.51
2023-04-24T06:08:39.210Z,9.47
2023-04-24T06:09:39.201Z,9.46
2023-04-24T06:10:39.246Z,9.43
2023-04-24T06:11:39.187Z,9.40
2023-04-24T06:12:39.167Z,9.38
2023-04-24T06:13:39.157Z,9.36
2023-04-24T06:14:39.191Z,9.33
2023-04-24T06:15:39.133Z,9.35
2023-04-24T06:16:39.195Z,9.35
2023-04-24T06:17:39.186Z,9.38
2023-04-24T06:18:39.089Z,9.36
2023-04-24T06:19:39.093Z,9.36
2023-04-24T06:20:39.072Z,9.36
2023-04-24T06:21:39.076Z,9.36
2023-04-24T06:22:39.105Z,9.36
2023-04-24T06:23:39.217Z,9.38
2023-04-24T06:24:39.047Z,9.39
2023-04-24T06:25:39.055Z,9.40
2023-04-24T06:26:39.154Z,9.43
2023-04-24T06:27:39.014Z,9.56
2023-04-24T06:28:39.072Z,9.61
2023-04-24T06:29:38.983Z,9.61
2023-04-24T06:30:39.057Z,9.65
2023-04-24T06:31:39.041Z,9.71
2023-04-24T06:32:39.291Z,9.74
2023-04-24T06:33:38.993Z,9.74
2023-04-24T06:34:38.973Z,9.75
2023-04-24T06:35:38.953Z,9.76
2023-04-24T06:36:38.943Z,9.81
2023-04-24T06:37:38.913Z,9.86
2023-04-24T06:38:38.922Z,9.86
2023-04-24T06:39:38.940Z,9.86
2023-04-24T06:40:39.280Z,9.86
2023-04-24T06:41:38.970Z,9.84
2023-04-24T06:42:38.837Z,9.81
2023-04-24T06:43:38.833Z,9.76
2023-04-24T06:44:38.856Z,9.75
2023-04-24T06:45:38.964Z,9.71
2023-04-24T06:46:41.011Z,9.65
2023-04-24T06:47:38.822Z,9.61
2023-04-24T06:48:38.781Z,9.60
2023-04-24T06:49:38.796Z,9.58
2023-04-24T06:50:38.905Z,9.58
2023-04-24T06:51:38.824Z,9.57
2023-04-24T06:52:38.784Z,9.56
2023-04-24T06:53:38.734Z,9.53
2023-04-24T06:54:39.144Z,9.48
2023-04-24T06:55:38.735Z,9.43
2023-04-24T06:56:38.721Z,9.43
2023-04-24T06:57:38.709Z,9.40
2023-04-24T06:58:38.721Z,9.35
2023-04-24T06:59:38.748Z,9.32
2023-04-24T07:00:38.645Z,9.33
2023-04-24T07:01:38.714Z,9.29
2023-04-24T07:02:38.891Z,9.31
2023-04-24T07:03:38.818Z,9.29
2023-04-24T07:04:38.707Z,9.32
2023-04-24T07:05:38.597Z,9.29
2023-04-24T07:06:38.614Z,9.31
2023-04-24T07:07:38.629Z,9.32
2023-04-24T07:08:38.588Z,9.32
2023-04-24T07:09:38.693Z,9.31
2023-04-24T07:10:38.527Z,9.31
2023-04-24T07:11:38.595Z,9.28
2023-04-24T07:12:38.528Z,9.26
2023-04-24T07:13:38.542Z,9.24
2023-04-24T07:14:38.498Z,9.28
2023-04-24T07:15:38.526Z,9.26
2023-04-24T07:16:38.654Z,9.21
2023-04-24T07:17:38.519Z,9.20
2023-04-24T07:18:38.498Z,9.21
2023-04-24T07:19:38.444Z,9.20
2023-04-24T07:20:38.479Z,9.20
2023-04-24T07:21:38.439Z,9.20
2023-04-24T07:22:38.419Z,9.20
2023-04-24T07:23:38.425Z,9.18
2023-04-24T07:24:38.554Z,9.15
2023-04-24T07:25:38.380Z,9.15
2023-04-24T07:26:38.375Z,9.14
2023-04-24T07:27:38.409Z,9.14
2023-04-24T07:28:38.370Z,9.13
2023-04-24T07:29:38.340Z,9.11
2023-04-24T07:30:38.319Z,9.10
2023-04-24T07:31:38.356Z,9.10
2023-04-24T07:32:38.400Z,9.10
2023-04-24T07:33:38.300Z,9.08
2023-04-24T07:34:38.335Z,9.05
2023-04-24T07:35:38.315Z,9.04
2023-04-24T07:36:38.291Z,9.02
2023-04-24T07:37:38.252Z,9.02
2023-04-24T07:38:38.255Z,8.99
2023-04-24T07:39:38.231Z,9.01
2023-04-24T07:40:38.212Z,8.99
2023-04-24T07:41:38.315Z,8.99
2023-04-24T07:42:38.186Z,8.98
2023-04-24T07:43:38.205Z,8.95
2023-04-24T07:44:38.180Z,8.96
2023-04-24T07:45:38.250Z,8.99
2023-04-24T07:46:38.223Z,8.99
2023-04-24T07:47:38.181Z,8.99
2023-04-24T07:48:38.146Z,8.98
2023-04-24T07:49:38.127Z,8.98
2023-04-24T07:50:38.113Z,8.98
2023-04-24T07:51:38.137Z,8.98
2023-04-24T07:52:38.144Z,8.96
2023-04-24T07:53:38.109Z,8.95
2023-04-24T07:54:38.060Z,8.94
2023-04-24T07:55:38.096Z,8.95
2023-04-24T07:56:38.057Z,8.96
2023-04-24T07:57:38.164Z,8.98
2023-04-24T07:58:38.024Z,9.01
2023-04-24T07:59:38.053Z,9.01
2023-04-24T08:00:38.008Z,8.99
2023-04-24T08:01:38.010Z,9.01
2023-04-24T08:02:38.122Z,8.99
2023-04-24T08:03:38.063Z,8.98
2023-04-24T08:04:38.244Z,8.98
2023-04-24T08:05:40.243Z,8.96
2023-04-24T08:06:38.055Z,8.95
2023-04-24T08:07:38.272Z,8.87
2023-04-24T08:08:37.942Z,8.87
2023-04-24T08:09:37.959Z,8.89
2023-04-24T08:10:37.958Z,8.87
2023-04-24T08:11:37.947Z,8.80
2023-04-24T08:12:37.892Z,8.71
2023-04-24T08:13:37.876Z,8.74
2023-04-24T08:14:37.849Z,8.74
2023-04-24T08:15:37.840Z,8.73
2023-04-24T08:16:38.120Z,8.66
2023-04-24T08:17:37.819Z,8.63
2023-04-24T08:18:37.815Z,8.63
2023-04-24T08:19:37.795Z,8.61
2023-04-24T08:20:37.817Z,8.61
2023-04-24T08:21:37.781Z,8.61
2023-04-24T08:22:37.827Z,8.63
2023-04-24T08:23:37.798Z,8.62
2023-04-24T08:24:37.850Z,8.56
2023-04-24T08:25:37.794Z,8.56
2023-04-24T08:26:37.732Z,8.52
2023-04-24T08:27:37.721Z,8.48
2023-04-24T08:28:37.718Z,8.52
2023-04-24T08:29:37.701Z,8.52
2023-04-24T08:30:37.665Z,8.48
2023-04-24T08:31:37.758Z,8.52
2023-04-24T08:32:37.715Z,8.48
2023-04-24T08:33:37.650Z,8.50
2023-04-24T08:34:37.634Z,8.48
2023-04-24T08:35:37.881Z,8.47
2023-04-24T08:36:46.591Z,8.47
2023-04-24T08:37:38.628Z,8.43
2023-04-24T08:38:37.586Z,8.45
2023-04-24T08:39:37.591Z,8.45
2023-04-24T08:40:37.569Z,8.37
2023-04-24T08:41:37.648Z,8.38
2023-04-24T08:42:37.547Z,8.41
2023-04-24T08:43:37.582Z,8.37
2023-04-24T08:44:37.530Z,8.36
2023-04-24T08:45:37.626Z,8.28
2023-04-24T08:46:37.576Z,8.22
2023-04-24T08:47:37.566Z,8.16
2023-04-24T08:48:37.490Z,8.10
2023-04-24T08:49:37.465Z,8.07
2023-04-24T08:50:37.485Z,8.05
2023-04-24T08:51:37.460Z,8.04
2023-04-24T08:52:37.446Z,8.02
2023-04-24T08:53:37.438Z,8.00
2023-04-24T08:54:37.444Z,7.98
2023-04-24T08:55:37.405Z,7.98
2023-04-24T08:56:37.409Z,7.98
2023-04-24T08:57:37.395Z,7.97
2023-04-24T08:58:37.463Z,7.97
2023-04-24T08:59:37.385Z,7.98
2023-04-24T09:00:37.353Z,8.08
2023-04-24T09:01:37.431Z,8.08
2023-04-24T09:02:37.574Z,8.07
2023-04-24T09:03:37.571Z,8.05
2023-04-24T09:04:37.480Z,8.07
2023-04-24T09:05:37.297Z,8.07
2023-04-24T09:06:37.300Z,8.07
2023-04-24T09:07:37.302Z,8.08
2023-04-24T09:08:37.285Z,8.07
2023-04-24T09:09:37.255Z,8.04
2023-04-24T09:10:37.249Z,8.04
2023-04-24T09:11:37.274Z,8.05
2023-04-24T09:12:37.278Z,8.05
2023-04-24T09:13:37.310Z,8.05
2023-04-24T09:14:37.249Z,8.07
2023-04-24T09:15:37.190Z,8.04
2023-04-24T09:16:37.264Z,8.04
2023-04-24T09:17:37.239Z,8.01
2023-04-24T09:18:37.178Z,8.02
2023-04-24T09:19:37.154Z,8.05
2023-04-24T09:20:37.244Z,8.05
2023-04-24T09:21:37.155Z,8.05
2023-04-24T09:22:37.129Z,8.05
2023-04-24T09:23:37.106Z,8.07
2023-04-24T09:24:37.109Z,8.07
2023-04-24T09:25:37.116Z,8.10
2023-04-24T09:26:37.082Z,8.11
2023-04-24T09:27:37.068Z,8.10
2023-04-24T09:28:37.046Z,8.12
2023-04-24T09:29:37.097Z,8.10
2023-04-24T09:30:37.045Z,8.11
2023-04-24T09:31:37.062Z,8.12
2023-04-24T09:32:37.141Z,8.15
2023-04-24T09:33:37.001Z,8.16
2023-04-24T09:34:37.065Z,8.18
2023-04-24T09:35:37.003Z,8.23
2023-04-24T09:36:36.978Z,8.23
2023-04-24T09:37:36.988Z,8.25
2023-04-24T09:38:36.956Z,8.28
2023-04-24T09:39:36.958Z,8.37
2023-04-24T09:40:37.579Z,8.38
2023-04-24T09:41:37.027Z,8.43
2023-04-24T09:42:36.908Z,8.47
2023-04-24T09:43:36.883Z,8.53
2023-04-24T09:44:36.905Z,8.52
2023-04-24T09:45:36.890Z,8.52
2023-04-24T09:46:36.985Z,8.55
2023-04-24T09:47:36.952Z,8.56
2023-04-24T09:48:36.849Z,8.55
2023-04-24T09:49:36.820Z,8.58
2023-04-24T09:50:36.958Z,8.59
2023-04-24T09:51:36.889Z,8.62
2023-04-24T09:52:36.808Z,8.62
2023-04-24T09:53:36.775Z,8.63
2023-04-24T09:54:36.779Z,8.65
2023-04-24T09:55:36.753Z,8.71
2023-04-24T09:56:36.784Z,8.76
2023-04-24T09:57:36.732Z,8.77
2023-04-24T09:58:36.808Z,8.80
2023-04-24T09:59:37.533Z,8.86
2023-04-24T10:00:36.752Z,8.91
2023-04-24T10:01:36.988Z,8.94
2023-04-24T10:02:36.882Z,8.91
2023-04-24T10:03:36.787Z,8.96
2023-04-24T10:04:36.783Z,8.99
2023-04-24T10:05:36.663Z,8.98
2023-04-24T10:06:36.670Z,9.05
2023-04-24T10:07:36.619Z,9.13
2023-04-24T10:08:36.654Z,9.11
2023-04-24T10:09:36.855Z,9.10
2023-04-24T10:10:36.738Z,9.05
2023-04-24T10:11:36.661Z,9.05
2023-04-24T10:12:36.653Z,9.05
2023-04-24T10:13:36.696Z,9.01
2023-04-24T10:14:36.559Z,9.01
2023-04-24T10:15:36.614Z,8.95
2023-04-24T10:16:36.552Z,8.96
2023-04-24T10:17:36.522Z,9.04
2023-04-24T10:18:36.523Z,9.02
2023-04-24T10:19:36.511Z,9.08
2023-04-24T10:20:36.500Z,9.05
2023-04-24T10:21:36.498Z,9.13
2023-04-24T10:22:36.469Z,9.18
2023-04-24T10:23:36.460Z,9.21
2023-04-24T10:24:36.452Z,9.28
2023-04-24T10:25:36.445Z,9.33
2023-04-24T10:26:36.451Z,9.39
2023-04-24T10:27:36.421Z,9.43
2023-04-24T10:28:36.566Z,9.54
2023-04-24T10:29:36.393Z,9.60
2023-04-24T10:30:36.394Z,9.72
2023-04-24T10:31:36.399Z,9.84
2023-04-24T10:32:36.404Z,9.83
2023-04-24T10:33:36.347Z,9.94
2023-04-24T10:34:36.340Z,10.02
2023-04-24T10:35:36.324Z,9.99
2023-04-24T10:36:36.346Z,10.09
2023-04-24T10:37:36.316Z,10.14
2023-04-24T10:38:36.335Z,10.23
2023-04-24T10:39:36.312Z,10.29
2023-04-24T10:40:36.347Z,10.33
2023-04-24T10:41:36.271Z,10.32
2023-04-24T10:42:36.261Z,10.30
2023-04-24T10:43:36.310Z,10.25
2023-04-24T10:44:36.360Z,10.15
2023-04-24T10:45:36.249Z,10.15
2023-04-24T10:46:36.263Z,10.14
2023-04-24T10:47:36.318Z,10.11
2023-04-24T10:48:36.208Z,10.12
2023-04-24T10:49:36.230Z,10.20
2023-04-24T10:50:36.273Z,10.23
2023-04-24T10:51:36.160Z,10.22
2023-04-24T10:52:36.151Z,10.22
2023-04-24T10:53:36.135Z,10.17
2023-04-24T10:54:36.152Z,10.20
2023-04-24T10:55:36.114Z,10.23
2023-04-24T10:56:36.113Z,10.26
2023-04-24T10:57:36.103Z,10.27
2023-04-24T10:58:36.086Z,10.12
2023-04-24T10:59:36.071Z,10.15
2023-04-24T11:00:36.257Z,10.15
2023-04-24T11:01:36.251Z,10.20
2023-04-24T11:02:36.219Z,10.20
2023-04-24T11:03:36.416Z,10.22
2023-04-24T11:04:36.062Z,10.25
2023-04-24T11:05:35.998Z,10.23
2023-04-24T11:06:36.145Z,10.14
2023-04-24T11:07:35.995Z,10.12
2023-04-24T11:08:35.974Z,10.09
2023-04-24T11:09:35.965Z,10.08
2023-04-24T11:10:35.970Z,10.05
2023-04-24T11:11:35.968Z,10.05
2023-04-24T11:12:35.922Z,10.05
2023-04-24T11:13:35.932Z,10.02
2023-04-24T11:14:35.906Z,10.05
2023-04-24T11:15:35.912Z,10.09
2023-04-24T11:16:35.958Z,10.08
2023-04-24T11:17:35.882Z,10.12
2023-04-24T11:18:35.856Z,10.18
2023-04-24T11:19:35.855Z,10.27
2023-04-24T11:20:35.894Z,10.23
2023-04-24T11:21:35.840Z,10.23
2023-04-24T11:22:35.808Z,10.23
2023-04-24T11:23:35.815Z,10.27
2023-04-24T11:24:35.789Z,10.25
2023-04-24T11:25:35.796Z,10.27
2023-04-24T11:26:35.786Z,10.41
2023-04-24T11:27:35.813Z,10.48
2023-04-24T11:28:35.758Z,10.53
2023-04-24T11:29:35.748Z,10.55
2023-04-24T11:30:35.772Z,10.59
2023-04-24T11:31:35.790Z,10.55
2023-04-24T11:32:35.762Z,10.60
2023-04-24T11:33:35.700Z,10.64
2023-04-24T11:34:35.716Z,10.76
2023-04-24T11:35:36.795Z,10.70
2023-04-24T11:36:35.667Z,10.64
2023-04-24T11:37:35.664Z,10.68
2023-04-24T11:38:35.682Z,10.67
2023-04-24T11:39:35.632Z,10.70
2023-04-24T11:40:35.622Z,10.67
2023-04-24T11:41:35.627Z,10.61
2023-04-24T11:42:35.597Z,10.56
2023-04-24T11:43:35.622Z,10.53
2023-04-24T11:44:35.688Z,10.52
2023-04-24T11:45:35.808Z,10.47
2023-04-24T11:46:35.681Z,10.40
2023-04-24T11:47:35.558Z,10.30
2023-04-24T11:48:35.532Z,10.34
2023-04-24T11:49:35.529Z,10.45
2023-04-24T11:50:35.512Z,10.61
2023-04-24T11:51:44.552Z,10.70
2023-04-24T11:52:36.484Z,10.78
2023-04-24T11:53:35.548Z,10.82
2023-04-24T11:54:35.466Z,10.84
2023-04-24T11:55:35.452Z,10.85
2023-04-24T11:56:35.479Z,10.91
2023-04-24T11:57:35.455Z,10.94
2023-04-24T11:58:35.435Z,11.02
2023-04-24T11:59:35.417Z,11.09
2023-04-24T12:00:35.485Z,11.10
2023-04-24T12:01:35.449Z,11.14
2023-04-24T12:02:37.498Z,11.17
2023-04-24T12:03:35.629Z,11.21
2023-04-24T12:04:36.102Z,11.22
2023-04-24T12:05:35.609Z,11.24
2023-04-24T12:06:35.346Z,11.21
2023-04-24T12:07:35.342Z,11.15
2023-04-24T12:08:36.639Z,11.10
2023-04-24T12:09:35.306Z,11.07
2023-04-24T12:10:35.356Z,11.06
2023-04-24T12:11:35.356Z,11.00
2023-04-24T12:12:35.289Z,11.00
2023-04-24T12:13:35.260Z,10.94
2023-04-24T12:14:35.272Z,10.91
2023-04-24T12:15:35.318Z,10.88
2023-04-24T12:16:35.311Z,10.85
2023-04-24T12:17:35.336Z,10.88
2023-04-24T12:18:35.211Z,10.84
2023-04-24T12:19:35.212Z,10.74
2023-04-24T12:20:35.261Z,10.68
2023-04-24T12:21:35.205Z,10.67
2023-04-24T12:22:35.162Z,10.67
2023-04-24T12:23:35.265Z,10.66
2023-04-24T12:24:35.165Z,10.66
2023-04-24T12:25:35.143Z,10.67
2023-04-24T12:26:35.138Z,10.73
2023-04-24T12:27:35.132Z,10.96
2023-04-24T12:28:35.106Z,10.92
2023-04-24T12:29:35.140Z,10.97
2023-04-24T12:30:35.087Z,11.02
2023-04-24T12:31:35.128Z,11.04
2023-04-24T12:32:35.112Z,11.04
2023-04-24T12:33:35.052Z,11.04
2023-04-24T12:34:35.061Z,11.04
2023-04-24T12:35:35.306Z,11.06
2023-04-24T12:36:35.040Z,11.04
2023-04-24T12:37:35.037Z,11.03
2023-04-24T12:38:35.027Z,11.03
2023-04-24T12:39:35.048Z,11.03
2023-04-24T12:40:34.980Z,11.09
2023-04-24T12:41:35.027Z,11.10
2023-04-24T12:42:35.044Z,11.14
2023-04-24T12:43:34.944Z,11.24
2023-04-24T12:44:34.935Z,11.37
2023-04-24T12:45:34.909Z,11.54
2023-04-24T12:46:34.971Z,11.76
2023-04-24T12:47:34.889Z,12.12
2023-04-24T12:48:34.909Z,12.16
2023-04-24T12:49:34.917Z,12.19
2023-04-24T12:50:34.893Z,12.29
2023-04-24T12:51:34.912Z,12.53
2023-04-24T12:52:34.993Z,12.46
2023-04-24T12:53:34.853Z,12.62
2023-04-24T12:54:35.017Z,12.60
2023-04-24T12:55:34.872Z,12.39
2023-04-24T12:56:34.805Z,12.29
2023-04-24T12:57:34.838Z,12.31
2023-04-24T12:58:34.784Z,12.34
2023-04-24T12:59:34.847Z,12.35
2023-04-24T13:00:34.927Z,12.31
2023-04-24T13:01:34.802Z,12.31
2023-04-24T13:02:34.980Z,12.27
2023-04-24T13:03:34.955Z,12.21
2023-04-24T13:04:34.746Z,12.23
2023-04-24T13:05:34.699Z,12.28
2023-04-24T13:06:34.696Z,12.27
2023-04-24T13:07:34.693Z,12.20
2023-04-24T13:08:34.731Z,12.16